This is the latest recevied weather packets stored in our database for station/object N3MFL. If no packets are shown the sender has not sent any weather packets the latest 10 day(s).
| Time | Temp. | Humidity | Pressure | Rain* | Wind** | Luminosity | Snow |
|---|---|---|---|---|---|---|---|
| 1777821384 | 7.78° C | 79% | 1007.2 hPa | 0 mm | - | 124 W/m² | - |
| 1777821080 | 7.78° C | 79% | 1007.2 hPa | 0 mm | - | 89 W/m² | - |
| 1777820777 | 7.78° C | 79% | 1007.2 hPa | 0 mm | - | 114 W/m² | - |
| 1777820474 | 7.78° C | 81% | 1007.2 hPa | 0 mm | - | 103 W/m² | - |
| 1777820171 | 7.78° C | 82% | 1007.1 hPa | 0 mm | - | 140 W/m² | - |
| 1777819868 | 7.22° C | 83% | 1007.3 hPa | 0 mm | - | 156 W/m² | - |
| 1777819565 | 7.22° C | 84% | 1007.2 hPa | 0 mm | - | 135 W/m² | - |
| 1777819263 | 7.22° C | 83% | 1007.2 hPa | 0 mm | - | 103 W/m² | - |
| 1777818959 | 7.22° C | 80% | 1007.2 hPa | 0 mm | - | 74 W/m² | - |
| 1777818655 | 8.33° C | 72% | 1007.2 hPa | 0 mm | - | 58 W/m² | - |
| 1777818353 | 8.89° C | 66% | 1007.1 hPa | 0 mm | - | 52 W/m² | - |
| 1777818049 | 8.89° C | 65% | 1006.9 hPa | 0 mm | - | 43 W/m² | - |
| 1777817746 | 9.44° C | 64% | 1006.8 hPa | 0 mm | - | 73 W/m² | - |
| 1777817444 | 10° C | 63% | 1006.8 hPa | 0 mm | - | 157 W/m² | - |
| 1777817139 | 10° C | 64% | 1006.9 hPa | 0 mm | - | 340 W/m² | - |
| 1777816837 | 8.89° C | 65% | 1006.7 hPa | 0 mm | - | 132 W/m² | - |
| 1777816534 | 8.89° C | 65% | 1006.9 hPa | 0 mm | - | 97 W/m² | - |
| 1777816231 | 8.89° C | 65% | 1006.8 hPa | 0 mm | - | 80 W/m² | - |
| 1777815929 | 8.89° C | 65% | 1006.7 hPa | 0 mm | - | 148 W/m² | - |
| 1777815626 | 8.89° C | 66% | 1006.8 hPa | 0 mm | - | 112 W/m² | - |
| 1777815323 | 8.89° C | 67% | 1006.7 hPa | 0 mm | - | 150 W/m² | - |
| 1777815020 | 8.89° C | 64% | 1007 hPa | 0 mm | - | 127 W/m² | - |
| 1777814716 | 9.44° C | 65% | 1006.9 hPa | 0 mm | - | 162 W/m² | - |
| 1777814413 | 8.89° C | 65% | 1007.1 hPa | 0 mm | - | 148 W/m² | - |
| 1777814110 | 8.89° C | 65% | 1007.1 hPa | 0 mm | - | 181 W/m² | - |
* Rain latest hour (hover to see other rain measurements)
** Current wind speed in m/s (hover to see current wind gust speed)